Terminal Aerodrome Forecast
Issued by NWS

Current Version | Previous Version | Text Only | Print | Product List | Glossary On
Versions: 1 2 3 4 5 6 7 8 9 10 11 12 13 14 15 16 17 18 19 20
000
FTUS44 KLZK 061900 AAA
TAFBPK
TAF AMD
KBPK 061957Z 0620/0718 19009KT P6SM VCSH FEW030
     FM070100 18004KT P6SM SCT050 BKN100
     FM071200 20008KT P6SM OVC050 PROB30 0712/0718 5SM -SHRA BR
      BKN040=

USA.gov is the U.S. government's official web portal to all federal, state and local government web resources and services.